sensor_id;sensor_type;location;lat;lon;timestamp;P1;durP1;ratioP1;P2;durP2;ratioP2
54123;SDS011;55741;53.252;5.788;2023-02-01T00:00:33;31.45;;;5.70;;
54123;SDS011;55741;53.252;5.788;2023-02-01T00:03:01;50.15;;;6.70;;
54123;SDS011;55741;53.252;5.788;2023-02-01T00:05:27;36.80;;;6.70;;
54123;SDS011;55741;53.252;5.788;2023-02-01T00:07:53;33.13;;;6.93;;
54123;SDS011;55741;53.252;5.788;2023-02-01T00:10:19;35.67;;;7.28;;
54123;SDS011;55741;53.252;5.788;2023-02-01T00:12:45;32.28;;;6.20;;
54123;SDS011;55741;53.252;5.788;2023-02-01T00:15:11;33.53;;;6.65;;
54123;SDS011;55741;53.252;5.788;2023-02-01T00:17:43;40.03;;;6.93;;
54123;SDS011;55741;53.252;5.788;2023-02-01T00:20:12;34.15;;;6.85;;
54123;SDS011;55741;53.252;5.788;2023-02-01T00:22:38;37.10;;;7.28;;
54123;SDS011;55741;53.252;5.788;2023-02-01T00:25:04;38.88;;;6.97;;
54123;SDS011;55741;53.252;5.788;2023-02-01T00:27:30;40.40;;;7.03;;
54123;SDS011;55741;53.252;5.788;2023-02-01T00:29:56;35.13;;;7.93;;
54123;SDS011;55741;53.252;5.788;2023-02-01T00:32:22;37.08;;;6.80;;
54123;SDS011;55741;53.252;5.788;2023-02-01T00:34:48;38.55;;;7.25;;
54123;SDS011;55741;53.252;5.788;2023-02-01T00:37:15;41.65;;;7.30;;
54123;SDS011;55741;53.252;5.788;2023-02-01T00:39:41;45.72;;;7.43;;
54123;SDS011;55741;53.252;5.788;2023-02-01T00:42:07;49.92;;;8.07;;
54123;SDS011;55741;53.252;5.788;2023-02-01T00:44:33;34.95;;;5.68;;
54123;SDS011;55741;53.252;5.788;2023-02-01T00:47:00;35.05;;;7.53;;
54123;SDS011;55741;53.252;5.788;2023-02-01T00:49:26;34.88;;;7.03;;
54123;SDS011;55741;53.252;5.788;2023-02-01T00:51:53;40.47;;;6.13;;
54123;SDS011;55741;53.252;5.788;2023-02-01T00:54:19;42.65;;;7.55;;
54123;SDS011;55741;53.252;5.788;2023-02-01T00:56:45;43.25;;;7.68;;
54123;SDS011;55741;53.252;5.788;2023-02-01T00:59:11;31.45;;;6.35;;
54123;SDS011;55741;53.252;5.788;2023-02-01T01:01:38;38.67;;;7.32;;
54123;SDS011;55741;53.252;5.788;2023-02-01T01:04:04;46.38;;;7.82;;
54123;SDS011;55741;53.252;5.788;2023-02-01T01:06:43;41.45;;;7.90;;
54123;SDS011;55741;53.252;5.788;2023-02-01T01:09:09;30.55;;;5.40;;
54123;SDS011;55741;53.252;5.788;2023-02-01T01:11:36;42.45;;;7.90;;
54123;SDS011;55741;53.252;5.788;2023-02-01T01:14:12;40.95;;;8.13;;
54123;SDS011;55741;53.252;5.788;2023-02-01T01:16:38;22.15;;;5.85;;
54123;SDS011;55741;53.252;5.788;2023-02-01T01:19:04;42.47;;;6.82;;
54123;SDS011;55741;53.252;5.788;2023-02-01T01:21:30;39.05;;;7.78;;
54123;SDS011;55741;53.252;5.788;2023-02-01T01:23:56;40.70;;;7.13;;
54123;SDS011;55741;53.252;5.788;2023-02-01T01:26:24;51.42;;;8.93;;
54123;SDS011;55741;53.252;5.788;2023-02-01T01:28:52;36.35;;;6.85;;
54123;SDS011;55741;53.252;5.788;2023-02-01T01:31:21;48.83;;;8.55;;
54123;SDS011;55741;53.252;5.788;2023-02-01T01:33:48;43.75;;;7.72;;
54123;SDS011;55741;53.252;5.788;2023-02-01T01:36:15;34.92;;;7.43;;
54123;SDS011;55741;53.252;5.788;2023-02-01T01:38:43;36.85;;;8.65;;
54123;SDS011;55741;53.252;5.788;2023-02-01T01:41:12;47.33;;;7.47;;
54123;SDS011;55741;53.252;5.788;2023-02-01T01:46:24;35.53;;;6.47;;
54123;SDS011;55741;53.252;5.788;2023-02-01T01:49:00;48.72;;;8.10;;
54123;SDS011;55741;53.252;5.788;2023-02-01T01:51:35;48.42;;;7.60;;
54123;SDS011;55741;53.252;5.788;2023-02-01T01:54:40;42.25;;;7.88;;
54123;SDS011;55741;53.252;5.788;2023-02-01T01:57:06;41.13;;;6.93;;
54123;SDS011;55741;53.252;5.788;2023-02-01T01:59:39;38.63;;;8.02;;
54123;SDS011;55741;53.252;5.788;2023-02-01T02:02:19;36.65;;;7.80;;
54123;SDS011;55741;53.252;5.788;2023-02-01T02:04:52;36.53;;;6.18;;
54123;SDS011;55741;53.252;5.788;2023-02-01T02:07:20;39.78;;;7.07;;
54123;SDS011;55741;53.252;5.788;2023-02-01T02:09:50;36.63;;;6.07;;
54123;SDS011;55741;53.252;5.788;2023-02-01T02:12:16;38.70;;;8.70;;
54123;SDS011;55741;53.252;5.788;2023-02-01T02:14:42;33.88;;;6.78;;
54123;SDS011;55741;53.252;5.788;2023-02-01T02:39:34;47.00;;;8.70;;
54123;SDS011;55741;53.252;5.788;2023-02-01T02:42:17;39.55;;;7.72;;
54123;SDS011;55741;53.252;5.788;2023-02-01T02:45:19;34.30;;;6.18;;
54123;SDS011;55741;53.252;5.788;2023-02-01T02:51:23;34.55;;;6.40;;
54123;SDS011;55741;53.252;5.788;2023-02-01T02:54:32;30.55;;;5.38;;
54123;SDS011;55741;53.252;5.788;2023-02-01T02:57:16;41.03;;;6.45;;
54123;SDS011;55741;53.252;5.788;2023-02-01T03:00:09;32.85;;;5.72;;
54123;SDS011;55741;53.252;5.788;2023-02-01T03:02:58;37.40;;;7.25;;
54123;SDS011;55741;53.252;5.788;2023-02-01T03:05:44;45.57;;;6.93;;
54123;SDS011;55741;53.252;5.788;2023-02-01T03:08:13;32.92;;;6.30;;
54123;SDS011;55741;53.252;5.788;2023-02-01T03:10:48;35.85;;;7.40;;
54123;SDS011;55741;53.252;5.788;2023-02-01T03:16:28;32.80;;;6.22;;
54123;SDS011;55741;53.252;5.788;2023-02-01T03:21:50;35.38;;;8.10;;
54123;SDS011;55741;53.252;5.788;2023-02-01T03:24:41;45.65;;;7.50;;
54123;SDS011;55741;53.252;5.788;2023-02-01T03:27:22;33.67;;;6.53;;
54123;SDS011;55741;53.252;5.788;2023-02-01T03:32:33;35.58;;;6.50;;
54123;SDS011;55741;53.252;5.788;2023-02-01T03:35:20;45.35;;;6.82;;
54123;SDS011;55741;53.252;5.788;2023-02-01T03:37:52;48.72;;;8.38;;
54123;SDS011;55741;53.252;5.788;2023-02-01T03:40:24;31.63;;;6.80;;
54123;SDS011;55741;53.252;5.788;2023-02-01T03:42:54;37.13;;;6.97;;
54123;SDS011;55741;53.252;5.788;2023-02-01T03:47:53;44.58;;;7.47;;
54123;SDS011;55741;53.252;5.788;2023-02-01T03:50:25;37.33;;;7.90;;
54123;SDS011;55741;53.252;5.788;2023-02-01T03:52:57;40.47;;;6.90;;
54123;SDS011;55741;53.252;5.788;2023-02-01T03:55:28;45.28;;;7.68;;
54123;SDS011;55741;53.252;5.788;2023-02-01T04:00:38;42.10;;;7.13;;
54123;SDS011;55741;53.252;5.788;2023-02-01T04:03:04;44.42;;;7.40;;
54123;SDS011;55741;53.252;5.788;2023-02-01T04:05:31;37.78;;;7.65;;
54123;SDS011;55741;53.252;5.788;2023-02-01T04:07:57;40.70;;;8.20;;
54123;SDS011;55741;53.252;5.788;2023-02-01T04:10:23;30.45;;;6.00;;
54123;SDS011;55741;53.252;5.788;2023-02-01T04:12:49;41.42;;;9.38;;
54123;SDS011;55741;53.252;5.788;2023-02-01T04:15:15;48.53;;;7.72;;
54123;SDS011;55741;53.252;5.788;2023-02-01T04:17:42;47.60;;;7.93;;
54123;SDS011;55741;53.252;5.788;2023-02-01T04:20:08;36.28;;;6.68;;
54123;SDS011;55741;53.252;5.788;2023-02-01T04:22:38;35.03;;;7.13;;
54123;SDS011;55741;53.252;5.788;2023-02-01T04:25:05;37.97;;;7.32;;
54123;SDS011;55741;53.252;5.788;2023-02-01T04:27:33;40.80;;;7.45;;
54123;SDS011;55741;53.252;5.788;2023-02-01T04:29:59;53.35;;;8.82;;
54123;SDS011;55741;53.252;5.788;2023-02-01T04:32:25;36.88;;;7.65;;
54123;SDS011;55741;53.252;5.788;2023-02-01T04:34:51;40.22;;;7.22;;
54123;SDS011;55741;53.252;5.788;2023-02-01T04:37:17;38.22;;;8.43;;
54123;SDS011;55741;53.252;5.788;2023-02-01T04:39:46;39.67;;;7.05;;
54123;SDS011;55741;53.252;5.788;2023-02-01T04:42:13;42.65;;;9.13;;
54123;SDS011;55741;53.252;5.788;2023-02-01T04:44:39;39.90;;;7.70;;
54123;SDS011;55741;53.252;5.788;2023-02-01T04:47:07;37.80;;;7.53;;
54123;SDS011;55741;53.252;5.788;2023-02-01T04:49:39;37.05;;;6.95;;
54123;SDS011;55741;53.252;5.788;2023-02-01T04:52:05;49.90;;;9.48;;
54123;SDS011;55741;53.252;5.788;2023-02-01T04:54:31;33.22;;;7.57;;
54123;SDS011;55741;53.252;5.788;2023-02-01T04:56:57;36.33;;;6.53;;
54123;SDS011;55741;53.252;5.788;2023-02-01T04:59:23;42.15;;;7.97;;
54123;SDS011;55741;53.252;5.788;2023-02-01T05:01:49;36.75;;;6.05;;
54123;SDS011;55741;53.252;5.788;2023-02-01T05:04:15;39.33;;;7.43;;
54123;SDS011;55741;53.252;5.788;2023-02-01T05:06:44;37.65;;;8.40;;
54123;SDS011;55741;53.252;5.788;2023-02-01T05:09:10;40.20;;;6.78;;
54123;SDS011;55741;53.252;5.788;2023-02-01T05:11:36;37.88;;;7.07;;
54123;SDS011;55741;53.252;5.788;2023-02-01T05:14:24;37.45;;;6.78;;
54123;SDS011;55741;53.252;5.788;2023-02-01T05:16:52;37.53;;;7.05;;
54123;SDS011;55741;53.252;5.788;2023-02-01T05:19:20;36.67;;;6.00;;
54123;SDS011;55741;53.252;5.788;2023-02-01T05:21:46;31.60;;;7.15;;
54123;SDS011;55741;53.252;5.788;2023-02-01T05:24:14;36.65;;;7.43;;
54123;SDS011;55741;53.252;5.788;2023-02-01T05:26:45;46.00;;;7.60;;
54123;SDS011;55741;53.252;5.788;2023-02-01T05:29:11;37.53;;;7.22;;
54123;SDS011;55741;53.252;5.788;2023-02-01T05:31:38;39.85;;;8.00;;
54123;SDS011;55741;53.252;5.788;2023-02-01T05:34:04;40.75;;;6.55;;
54123;SDS011;55741;53.252;5.788;2023-02-01T05:36:31;35.33;;;6.90;;
54123;SDS011;55741;53.252;5.788;2023-02-01T05:38:57;38.92;;;6.18;;
54123;SDS011;55741;53.252;5.788;2023-02-01T05:41:23;40.25;;;7.10;;
54123;SDS011;55741;53.252;5.788;2023-02-01T05:43:51;45.97;;;7.43;;
54123;SDS011;55741;53.252;5.788;2023-02-01T05:46:17;49.50;;;8.20;;
54123;SDS011;55741;53.252;5.788;2023-02-01T05:48:43;32.60;;;7.22;;
54123;SDS011;55741;53.252;5.788;2023-02-01T05:51:09;45.88;;;7.53;;
54123;SDS011;55741;53.252;5.788;2023-02-01T05:53:36;32.25;;;7.10;;
54123;SDS011;55741;53.252;5.788;2023-02-01T05:56:02;39.40;;;6.30;;
54123;SDS011;55741;53.252;5.788;2023-02-01T05:58:33;40.03;;;6.07;;
54123;SDS011;55741;53.252;5.788;2023-02-01T06:00:59;35.13;;;6.72;;
54123;SDS011;55741;53.252;5.788;2023-02-01T06:03:27;39.33;;;6.93;;
54123;SDS011;55741;53.252;5.788;2023-02-01T06:05:53;44.60;;;7.55;;
54123;SDS011;55741;53.252;5.788;2023-02-01T06:08:19;34.22;;;6.20;;
54123;SDS011;55741;53.252;5.788;2023-02-01T06:10:45;40.35;;;6.72;;
54123;SDS011;55741;53.252;5.788;2023-02-01T06:13:15;34.95;;;6.43;;
54123;SDS011;55741;53.252;5.788;2023-02-01T06:15:41;38.47;;;7.20;;
54123;SDS011;55741;53.252;5.788;2023-02-01T06:18:10;39.08;;;7.53;;
54123;SDS011;55741;53.252;5.788;2023-02-01T06:20:36;41.53;;;7.22;;
54123;SDS011;55741;53.252;5.788;2023-02-01T06:23:02;36.00;;;8.43;;
54123;SDS011;55741;53.252;5.788;2023-02-01T06:25:30;34.75;;;7.78;;
54123;SDS011;55741;53.252;5.788;2023-02-01T06:27:55;42.95;;;8.68;;
54123;SDS011;55741;53.252;5.788;2023-02-01T06:30:25;39.80;;;7.90;;
54123;SDS011;55741;53.252;5.788;2023-02-01T06:32:51;39.30;;;7.00;;
54123;SDS011;55741;53.252;5.788;2023-02-01T06:35:20;37.95;;;8.05;;
54123;SDS011;55741;53.252;5.788;2023-02-01T06:37:46;40.92;;;7.60;;
54123;SDS011;55741;53.252;5.788;2023-02-01T06:40:12;42.30;;;7.32;;
54123;SDS011;55741;53.252;5.788;2023-02-01T06:42:41;53.03;;;7.97;;
54123;SDS011;55741;53.252;5.788;2023-02-01T06:45:08;39.28;;;7.38;;
54123;SDS011;55741;53.252;5.788;2023-02-01T06:47:37;44.03;;;8.30;;
54123;SDS011;55741;53.252;5.788;2023-02-01T06:50:03;38.67;;;8.20;;
54123;SDS011;55741;53.252;5.788;2023-02-01T06:52:29;37.83;;;6.55;;
54123;SDS011;55741;53.252;5.788;2023-02-01T06:54:55;48.97;;;7.95;;
54123;SDS011;55741;53.252;5.788;2023-02-01T06:57:21;43.35;;;7.72;;
54123;SDS011;55741;53.252;5.788;2023-02-01T06:59:47;37.08;;;7.47;;
54123;SDS011;55741;53.252;5.788;2023-02-01T07:02:13;46.15;;;7.70;;
54123;SDS011;55741;53.252;5.788;2023-02-01T07:04:39;37.67;;;7.32;;
54123;SDS011;55741;53.252;5.788;2023-02-01T07:07:05;48.58;;;8.55;;
54123;SDS011;55741;53.252;5.788;2023-02-01T07:09:31;43.88;;;7.07;;
54123;SDS011;55741;53.252;5.788;2023-02-01T07:11:56;49.85;;;8.77;;
54123;SDS011;55741;53.252;5.788;2023-02-01T07:14:42;42.28;;;7.82;;
54123;SDS011;55741;53.252;5.788;2023-02-01T07:17:28;40.85;;;6.22;;
54123;SDS011;55741;53.252;5.788;2023-02-01T07:22:40;40.15;;;6.32;;
54123;SDS011;55741;53.252;5.788;2023-02-01T07:25:06;40.67;;;6.80;;
54123;SDS011;55741;53.252;5.788;2023-02-01T07:27:34;35.70;;;5.57;;
54123;SDS011;55741;53.252;5.788;2023-02-01T07:30:00;43.15;;;7.70;;
54123;SDS011;55741;53.252;5.788;2023-02-01T07:32:28;40.78;;;6.97;;
54123;SDS011;55741;53.252;5.788;2023-02-01T07:34:54;37.17;;;6.32;;
54123;SDS011;55741;53.252;5.788;2023-02-01T07:37:20;39.03;;;7.47;;
54123;SDS011;55741;53.252;5.788;2023-02-01T07:39:46;37.78;;;7.07;;
54123;SDS011;55741;53.252;5.788;2023-02-01T07:42:12;33.97;;;7.22;;
54123;SDS011;55741;53.252;5.788;2023-02-01T07:44:37;43.58;;;6.03;;
54123;SDS011;55741;53.252;5.788;2023-02-01T07:47:05;42.40;;;7.47;;
54123;SDS011;55741;53.252;5.788;2023-02-01T07:49:31;34.47;;;6.53;;
54123;SDS011;55741;53.252;5.788;2023-02-01T07:51:59;36.20;;;6.47;;
54123;SDS011;55741;53.252;5.788;2023-02-01T07:54:24;35.88;;;6.15;;
54123;SDS011;55741;53.252;5.788;2023-02-01T07:56:50;42.97;;;7.40;;
54123;SDS011;55741;53.252;5.788;2023-02-01T07:59:16;43.40;;;7.35;;
54123;SDS011;55741;53.252;5.788;2023-02-01T08:01:42;51.40;;;7.22;;
54123;SDS011;55741;53.252;5.788;2023-02-01T08:04:09;43.22;;;6.80;;
54123;SDS011;55741;53.252;5.788;2023-02-01T08:06:37;47.63;;;7.32;;
54123;SDS011;55741;53.252;5.788;2023-02-01T08:09:04;41.10;;;7.60;;
54123;SDS011;55741;53.252;5.788;2023-02-01T08:11:30;39.40;;;7.22;;
54123;SDS011;55741;53.252;5.788;2023-02-01T08:13:57;38.58;;;6.72;;
54123;SDS011;55741;53.252;5.788;2023-02-01T08:16:23;42.67;;;7.10;;
54123;SDS011;55741;53.252;5.788;2023-02-01T08:18:49;44.00;;;7.65;;
54123;SDS011;55741;53.252;5.788;2023-02-01T08:21:20;39.42;;;7.55;;
54123;SDS011;55741;53.252;5.788;2023-02-01T08:23:48;48.95;;;8.18;;
54123;SDS011;55741;53.252;5.788;2023-02-01T08:28:44;44.92;;;9.23;;
54123;SDS011;55741;53.252;5.788;2023-02-01T08:31:13;36.75;;;8.00;;
54123;SDS011;55741;53.252;5.788;2023-02-01T08:33:41;34.67;;;6.72;;
54123;SDS011;55741;53.252;5.788;2023-02-01T08:36:08;44.03;;;7.70;;
54123;SDS011;55741;53.252;5.788;2023-02-01T08:38:35;41.08;;;6.70;;
54123;SDS011;55741;53.252;5.788;2023-02-01T08:41:08;31.77;;;6.32;;
54123;SDS011;55741;53.252;5.788;2023-02-01T08:43:39;32.90;;;6.78;;
54123;SDS011;55741;53.252;5.788;2023-02-01T08:46:17;35.35;;;5.25;;
54123;SDS011;55741;53.252;5.788;2023-02-01T08:48:48;36.83;;;5.78;;
54123;SDS011;55741;53.252;5.788;2023-02-01T08:51:15;30.25;;;6.13;;
54123;SDS011;55741;53.252;5.788;2023-02-01T08:53:43;22.88;;;4.75;;
54123;SDS011;55741;53.252;5.788;2023-02-01T08:56:11;38.90;;;6.40;;
54123;SDS011;55741;53.252;5.788;2023-02-01T08:58:42;32.63;;;6.07;;
54123;SDS011;55741;53.252;5.788;2023-02-01T09:01:09;28.00;;;5.57;;
54123;SDS011;55741;53.252;5.788;2023-02-01T09:03:37;31.73;;;5.28;;
54123;SDS011;55741;53.252;5.788;2023-02-01T09:06:04;29.60;;;5.63;;
54123;SDS011;55741;53.252;5.788;2023-02-01T09:08:34;30.58;;;5.53;;
54123;SDS011;55741;53.252;5.788;2023-02-01T09:11:02;27.35;;;4.95;;
54123;SDS011;55741;53.252;5.788;2023-02-01T09:13:31;38.22;;;6.18;;
54123;SDS011;55741;53.252;5.788;2023-02-01T09:15:58;39.17;;;6.63;;
54123;SDS011;55741;53.252;5.788;2023-02-01T09:18:25;31.92;;;5.93;;
54123;SDS011;55741;53.252;5.788;2023-02-01T09:20:51;23.58;;;5.63;;
54123;SDS011;55741;53.252;5.788;2023-02-01T09:23:17;42.10;;;7.15;;
54123;SDS011;55741;53.252;5.788;2023-02-01T09:25:45;36.55;;;6.07;;
54123;SDS011;55741;53.252;5.788;2023-02-01T09:28:13;34.72;;;5.03;;
54123;SDS011;55741;53.252;5.788;2023-02-01T09:30:39;32.38;;;5.65;;
54123;SDS011;55741;53.252;5.788;2023-02-01T09:33:05;32.60;;;7.35;;
54123;SDS011;55741;53.252;5.788;2023-02-01T09:35:31;33.05;;;5.80;;
54123;SDS011;55741;53.252;5.788;2023-02-01T09:37:56;26.33;;;5.85;;
54123;SDS011;55741;53.252;5.788;2023-02-01T09:40:22;33.67;;;6.63;;
54123;SDS011;55741;53.252;5.788;2023-02-01T09:48:04;27.83;;;5.72;;
54123;SDS011;55741;53.252;5.788;2023-02-01T09:50:40;38.60;;;5.90;;
54123;SDS011;55741;53.252;5.788;2023-02-01T09:55:42;29.77;;;5.72;;
54123;SDS011;55741;53.252;5.788;2023-02-01T10:00:46;43.80;;;7.85;;
54123;SDS011;55741;53.252;5.788;2023-02-01T10:03:17;31.25;;;5.20;;
54123;SDS011;55741;53.252;5.788;2023-02-01T10:08:42;33.10;;;6.32;;
54123;SDS011;55741;53.252;5.788;2023-02-01T10:11:31;43.85;;;6.03;;
54123;SDS011;55741;53.252;5.788;2023-02-01T10:20:09;30.05;;;7.03;;
54123;SDS011;55741;53.252;5.788;2023-02-01T10:25:44;45.55;;;7.85;;
54123;SDS011;55741;53.252;5.788;2023-02-01T10:28:18;26.77;;;5.47;;
54123;SDS011;55741;53.252;5.788;2023-02-01T10:30:47;35.17;;;6.63;;
54123;SDS011;55741;53.252;5.788;2023-02-01T10:33:15;35.38;;;6.47;;
54123;SDS011;55741;53.252;5.788;2023-02-01T10:35:41;30.33;;;6.65;;
54123;SDS011;55741;53.252;5.788;2023-02-01T10:38:17;38.50;;;8.50;;
54123;SDS011;55741;53.252;5.788;2023-02-01T10:40:52;34.50;;;6.35;;
54123;SDS011;55741;53.252;5.788;2023-02-01T10:43:26;35.38;;;7.25;;
54123;SDS011;55741;53.252;5.788;2023-02-01T10:45:52;40.60;;;7.47;;
54123;SDS011;55741;53.252;5.788;2023-02-01T10:48:18;29.20;;;6.18;;
54123;SDS011;55741;53.252;5.788;2023-02-01T10:50:48;30.48;;;5.55;;
54123;SDS011;55741;53.252;5.788;2023-02-01T10:53:34;33.50;;;6.45;;
54123;SDS011;55741;53.252;5.788;2023-02-01T10:58:42;35.75;;;7.20;;
54123;SDS011;55741;53.252;5.788;2023-02-01T11:01:33;28.08;;;6.32;;
54123;SDS011;55741;53.252;5.788;2023-02-01T11:04:01;36.97;;;5.78;;
54123;SDS011;55741;53.252;5.788;2023-02-01T11:17:00;43.65;;;6.90;;
54123;SDS011;55741;53.252;5.788;2023-02-01T11:19:45;32.80;;;6.10;;
54123;SDS011;55741;53.252;5.788;2023-02-01T11:22:12;31.17;;;6.63;;
54123;SDS011;55741;53.252;5.788;2023-02-01T11:24:39;46.55;;;6.97;;
54123;SDS011;55741;53.252;5.788;2023-02-01T11:27:17;38.20;;;6.93;;
54123;SDS011;55741;53.252;5.788;2023-02-01T11:32:15;35.20;;;8.30;;
54123;SDS011;55741;53.252;5.788;2023-02-01T11:34:45;42.67;;;8.13;;
54123;SDS011;55741;53.252;5.788;2023-02-01T11:37:22;37.72;;;6.55;;
54123;SDS011;55741;53.252;5.788;2023-02-01T11:39:56;40.00;;;8.20;;
54123;SDS011;55741;53.252;5.788;2023-02-01T11:42:24;44.63;;;8.63;;
54123;SDS011;55741;53.252;5.788;2023-02-01T11:44:51;41.67;;;7.40;;
54123;SDS011;55741;53.252;5.788;2023-02-01T11:47:39;45.53;;;8.15;;
54123;SDS011;55741;53.252;5.788;2023-02-01T11:50:12;45.47;;;8.57;;
54123;SDS011;55741;53.252;5.788;2023-02-01T12:15:41;46.20;;;7.90;;
54123;SDS011;55741;53.252;5.788;2023-02-01T12:35:13;47.10;;;9.32;;
54123;SDS011;55741;53.252;5.788;2023-02-01T12:40:28;58.15;;;9.80;;
54123;SDS011;55741;53.252;5.788;2023-02-01T12:43:12;54.53;;;9.40;;
54123;SDS011;55741;53.252;5.788;2023-02-01T12:45:52;54.55;;;9.02;;
54123;SDS011;55741;53.252;5.788;2023-02-01T12:48:37;47.65;;;9.18;;
54123;SDS011;55741;53.252;5.788;2023-02-01T12:51:40;49.35;;;9.45;;
54123;SDS011;55741;53.252;5.788;2023-02-01T12:59:25;50.28;;;9.60;;
54123;SDS011;55741;53.252;5.788;2023-02-01T13:02:04;51.50;;;9.48;;
54123;SDS011;55741;53.252;5.788;2023-02-01T13:15:46;51.58;;;9.27;;
54123;SDS011;55741;53.252;5.788;2023-02-01T13:18:39;58.28;;;8.85;;
54123;SDS011;55741;53.252;5.788;2023-02-01T13:21:16;51.35;;;7.35;;
54123;SDS011;55741;53.252;5.788;2023-02-01T13:23:49;61.80;;;9.57;;
54123;SDS011;55741;53.252;5.788;2023-02-01T13:26:16;48.88;;;9.05;;
54123;SDS011;55741;53.252;5.788;2023-02-01T13:36:47;40.75;;;8.32;;
54123;SDS011;55741;53.252;5.788;2023-02-01T13:39:45;52.63;;;8.80;;
54123;SDS011;55741;53.252;5.788;2023-02-01T13:45:18;51.88;;;8.60;;
54123;SDS011;55741;53.252;5.788;2023-02-01T13:47:48;52.10;;;9.35;;
54123;SDS011;55741;53.252;5.788;2023-02-01T13:53:03;51.00;;;9.05;;
54123;SDS011;55741;53.252;5.788;2023-02-01T13:56:01;52.33;;;8.75;;
54123;SDS011;55741;53.252;5.788;2023-02-01T13:58:35;51.28;;;8.23;;
54123;SDS011;55741;53.252;5.788;2023-02-01T14:03:57;46.55;;;9.80;;
54123;SDS011;55741;53.252;5.788;2023-02-01T14:09:10;65.93;;;11.30;;
54123;SDS011;55741;53.252;5.788;2023-02-01T14:19:36;56.67;;;10.02;;
54123;SDS011;55741;53.252;5.788;2023-02-01T14:24:53;56.10;;;10.18;;
54123;SDS011;55741;53.252;5.788;2023-02-01T14:27:21;57.50;;;9.85;;
54123;SDS011;55741;53.252;5.788;2023-02-01T14:29:56;52.58;;;9.38;;
54123;SDS011;55741;53.252;5.788;2023-02-01T14:32:31;58.33;;;9.52;;
54123;SDS011;55741;53.252;5.788;2023-02-01T14:35:02;53.88;;;9.43;;
54123;SDS011;55741;53.252;5.788;2023-02-01T14:37:32;62.42;;;9.73;;
54123;SDS011;55741;53.252;5.788;2023-02-01T14:40:02;71.75;;;12.15;;
54123;SDS011;55741;53.252;5.788;2023-02-01T14:47:52;57.90;;;9.05;;
54123;SDS011;55741;53.252;5.788;2023-02-01T15:00:53;36.67;;;8.40;;
54123;SDS011;55741;53.252;5.788;2023-02-01T15:06:20;37.45;;;8.20;;
54123;SDS011;55741;53.252;5.788;2023-02-01T15:08:54;44.70;;;7.43;;
54123;SDS011;55741;53.252;5.788;2023-02-01T15:11:26;42.67;;;7.00;;
54123;SDS011;55741;53.252;5.788;2023-02-01T15:13:52;39.45;;;6.93;;
54123;SDS011;55741;53.252;5.788;2023-02-01T15:16:21;36.08;;;7.70;;
54123;SDS011;55741;53.252;5.788;2023-02-01T15:18:49;43.15;;;7.97;;
54123;SDS011;55741;53.252;5.788;2023-02-01T15:21:17;40.95;;;7.25;;
54123;SDS011;55741;53.252;5.788;2023-02-01T15:23:45;48.33;;;7.35;;
54123;SDS011;55741;53.252;5.788;2023-02-01T15:26:26;38.95;;;7.28;;
54123;SDS011;55741;53.252;5.788;2023-02-01T15:28:53;36.10;;;6.13;;
54123;SDS011;55741;53.252;5.788;2023-02-01T15:31:37;47.42;;;7.10;;
54123;SDS011;55741;53.252;5.788;2023-02-01T15:34:06;36.70;;;6.43;;
54123;SDS011;55741;53.252;5.788;2023-02-01T15:36:32;31.77;;;7.22;;
54123;SDS011;55741;53.252;5.788;2023-02-01T15:44:31;34.88;;;5.35;;
54123;SDS011;55741;53.252;5.788;2023-02-01T15:47:07;27.25;;;5.97;;
54123;SDS011;55741;53.252;5.788;2023-02-01T15:49:49;20.50;;;5.22;;
54123;SDS011;55741;53.252;5.788;2023-02-01T15:52:22;33.78;;;8.15;;
54123;SDS011;55741;53.252;5.788;2023-02-01T15:55:04;32.67;;;5.32;;
54123;SDS011;55741;53.252;5.788;2023-02-01T15:57:34;33.78;;;6.72;;
54123;SDS011;55741;53.252;5.788;2023-02-01T16:02:55;26.88;;;4.90;;
54123;SDS011;55741;53.252;5.788;2023-02-01T16:08:00;29.38;;;6.03;;
54123;SDS011;55741;53.252;5.788;2023-02-01T16:10:40;45.88;;;6.30;;
54123;SDS011;55741;53.252;5.788;2023-02-01T16:13:08;39.15;;;7.30;;
54123;SDS011;55741;53.252;5.788;2023-02-01T16:15:34;35.78;;;7.35;;
54123;SDS011;55741;53.252;5.788;2023-02-01T16:18:00;38.83;;;7.75;;
54123;SDS011;55741;53.252;5.788;2023-02-01T16:20:26;34.50;;;6.43;;
54123;SDS011;55741;53.252;5.788;2023-02-01T16:22:52;45.05;;;7.80;;
54123;SDS011;55741;53.252;5.788;2023-02-01T16:25:18;46.55;;;8.40;;
54123;SDS011;55741;53.252;5.788;2023-02-01T16:27:44;52.22;;;7.70;;
54123;SDS011;55741;53.252;5.788;2023-02-01T16:30:09;50.97;;;9.55;;
54123;SDS011;55741;53.252;5.788;2023-02-01T16:32:36;49.80;;;8.00;;
54123;SDS011;55741;53.252;5.788;2023-02-01T16:35:24;47.10;;;9.55;;
54123;SDS011;55741;53.252;5.788;2023-02-01T16:37:51;45.20;;;7.88;;
54123;SDS011;55741;53.252;5.788;2023-02-01T16:40:18;42.92;;;7.20;;
54123;SDS011;55741;53.252;5.788;2023-02-01T16:42:48;37.22;;;6.65;;
54123;SDS011;55741;53.252;5.788;2023-02-01T16:45:16;35.30;;;5.80;;
54123;SDS011;55741;53.252;5.788;2023-02-01T16:47:47;37.58;;;7.28;;
54123;SDS011;55741;53.252;5.788;2023-02-01T16:50:17;37.10;;;7.03;;
54123;SDS011;55741;53.252;5.788;2023-02-01T16:52:45;35.00;;;6.00;;
54123;SDS011;55741;53.252;5.788;2023-02-01T16:55:18;32.78;;;6.07;;
54123;SDS011;55741;53.252;5.788;2023-02-01T16:57:48;37.05;;;6.78;;
54123;SDS011;55741;53.252;5.788;2023-02-01T17:00:14;27.50;;;5.05;;
54123;SDS011;55741;53.252;5.788;2023-02-01T17:02:43;31.88;;;6.57;;
54123;SDS011;55741;53.252;5.788;2023-02-01T17:05:11;38.47;;;5.43;;
54123;SDS011;55741;53.252;5.788;2023-02-01T17:07:37;25.67;;;5.03;;
54123;SDS011;55741;53.252;5.788;2023-02-01T17:10:05;31.65;;;4.78;;
54123;SDS011;55741;53.252;5.788;2023-02-01T17:12:41;35.03;;;6.45;;
54123;SDS011;55741;53.252;5.788;2023-02-01T17:15:07;27.13;;;5.35;;
54123;SDS011;55741;53.252;5.788;2023-02-01T17:17:36;32.13;;;5.65;;
54123;SDS011;55741;53.252;5.788;2023-02-01T17:20:03;22.15;;;4.80;;
54123;SDS011;55741;53.252;5.788;2023-02-01T17:22:31;21.60;;;5.38;;
54123;SDS011;55741;53.252;5.788;2023-02-01T17:24:57;30.42;;;5.60;;
54123;SDS011;55741;53.252;5.788;2023-02-01T17:27:23;26.48;;;5.03;;
54123;SDS011;55741;53.252;5.788;2023-02-01T17:29:49;32.45;;;5.47;;
54123;SDS011;55741;53.252;5.788;2023-02-01T17:32:19;20.23;;;4.35;;
54123;SDS011;55741;53.252;5.788;2023-02-01T17:34:47;30.38;;;5.25;;
54123;SDS011;55741;53.252;5.788;2023-02-01T17:37:27;33.15;;;5.65;;
54123;SDS011;55741;53.252;5.788;2023-02-01T17:39:55;27.42;;;5.53;;
54123;SDS011;55741;53.252;5.788;2023-02-01T17:42:22;40.55;;;6.15;;
54123;SDS011;55741;53.252;5.788;2023-02-01T17:44:50;33.08;;;6.25;;
54123;SDS011;55741;53.252;5.788;2023-02-01T17:47:19;29.65;;;5.30;;
54123;SDS011;55741;53.252;5.788;2023-02-01T17:49:45;32.85;;;5.75;;
54123;SDS011;55741;53.252;5.788;2023-02-01T17:52:16;29.85;;;5.20;;
54123;SDS011;55741;53.252;5.788;2023-02-01T17:54:43;32.03;;;5.70;;
54123;SDS011;55741;53.252;5.788;2023-02-01T17:57:11;28.42;;;5.65;;
54123;SDS011;55741;53.252;5.788;2023-02-01T17:59:39;27.45;;;4.45;;
54123;SDS011;55741;53.252;5.788;2023-02-01T18:02:18;30.88;;;5.75;;
54123;SDS011;55741;53.252;5.788;2023-02-01T18:04:46;33.05;;;7.70;;
54123;SDS011;55741;53.252;5.788;2023-02-01T18:07:11;30.45;;;4.50;;
54123;SDS011;55741;53.252;5.788;2023-02-01T18:09:37;31.48;;;5.28;;
54123;SDS011;55741;53.252;5.788;2023-02-01T18:12:03;26.65;;;5.47;;
54123;SDS011;55741;53.252;5.788;2023-02-01T18:14:30;34.47;;;5.60;;